Time;durP1;ratioP1;P1;durP2;ratioP2;P2;SDS_P1;SDS_P2;PMS_P1;PMS_P2;Temp;Humidity;BMP_temperature;BMP_pressure;BME280_temperature;BME280_humidity;BME280_pressure;Samples;Min_cycle;Max_cycle;Signal;HPM_P1;HPM_P2
2022/11/02 00:00:28;;;;;;;15.35;2.53;;;;;;;13.22;72.33;101318.25;5120803;28;20028;-81
2022/11/02 00:02:53;;;;;;;10.80;2.30;;;;;;;13.23;72.71;101322.63;5103840;28;20028;-81
2022/11/02 00:05:23;;;;;;;11.52;2.45;;;;;;;13.23;72.79;101328.81;5114857;28;20103;-81
2022/11/02 00:07:50;;;;;;;8.55;2.03;;;;;;;13.26;71.95;101327.72;5102022;28;20477;-81
2022/11/02 00:10:16;;;;;;;13.18;2.63;;;;;;;13.28;71.98;101328.44;5111853;28;20432;-81
2022/11/02 00:12:41;;;;;;;12.10;2.15;;;;;;;13.29;71.83;101330.16;5112744;28;20073;-81
2022/11/02 00:15:07;;;;;;;9.43;2.20;;;;;;;13.31;71.58;101326.38;5110156;28;20027;-81
2022/11/02 00:17:34;;;;;;;11.70;2.92;;;;;;;13.32;71.72;101325.44;5115182;28;20365;-81
2022/11/02 00:19:59;;;;;;;11.98;2.60;;;;;;;13.33;71.91;101336.97;5116948;28;20092;-81
2022/11/02 00:22:25;;;;;;;13.95;3.05;;;;;;;13.34;71.35;101330.66;5116441;28;20496;-81
2022/11/02 00:24:51;;;;;;;10.73;2.47;;;;;;;13.36;71.23;101325.22;5118106;28;20047;-80
2022/11/02 00:27:16;;;;;;;11.85;2.55;;;;;;;13.37;71.59;101332.22;5118526;28;20023;-81
2022/11/02 00:29:42;;;;;;;8.55;2.03;;;;;;;13.34;71.42;101325.34;5114776;27;20115;-80
2022/11/02 00:32:07;;;;;;;10.25;2.55;;;;;;;13.37;71.29;101327.72;5115237;28;20040;-82
2022/11/02 00:34:32;;;;;;;10.80;2.80;;;;;;;13.42;70.85;101328.22;5114676;28;20523;-82
2022/11/02 00:36:57;;;;;;;11.60;2.37;;;;;;;13.41;71.01;101320.34;5108310;28;20043;-81
2022/11/02 00:39:23;;;;;;;14.63;2.67;;;;;;;13.41;70.69;101323.84;5109064;28;20278;-82
2022/11/02 00:41:48;;;;;;;12.30;2.15;;;;;;;13.42;70.91;101325.56;5119527;28;20304;-82
2022/11/02 00:44:13;;;;;;;8.63;2.10;;;;;;;13.42;70.07;101344.25;5109890;28;20032;-82
2022/11/02 00:46:39;;;;;;;5.40;1.80;;;;;;;13.42;69.88;101338.03;5115970;28;20371;-82
2022/11/02 00:49:04;;;;;;;8.68;1.98;;;;;;;13.41;69.53;101357.69;5129364;27;20047;-81
2022/11/02 00:51:30;;;;;;;7.05;1.77;;;;;;;13.40;69.22;101331.97;5135662;27;20160;-81
2022/11/02 00:53:55;;;;;;;11.25;2.03;;;;;;;13.36;69.27;101352.72;5113407;27;20034;-81
2022/11/02 00:56:20;;;;;;;8.97;2.00;;;;;;;13.35;69.15;101348.34;5146328;27;20033;-81
2022/11/02 00:58:46;;;;;;;8.57;2.37;;;;;;;13.32;69.04;101345.94;5150621;27;20280;-81
2022/11/02 01:01:11;;;;;;;9.85;1.73;;;;;;;13.26;68.92;101357.06;5122597;27;20710;-82
2022/11/02 01:03:36;;;;;;;9.07;1.77;;;;;;;13.25;68.78;101355.38;5143130;27;20026;-81
2022/11/02 01:06:10;;;;;;;8.70;1.95;;;;;;;13.18;68.73;101356.84;5142476;27;20023;-81
2022/11/02 01:08:36;;;;;;;7.85;1.73;;;;;;;13.16;68.96;101354.28;5109587;27;20062;-81
2022/11/02 01:11:09;;;;;;;8.98;1.90;;;;;;;13.13;69.59;101362.53;5139045;27;20106;-81
2022/11/02 01:13:35;;;;;;;8.07;2.10;;;;;;;13.11;68.59;101373.31;5141216;27;20060;-81
2022/11/02 01:16:04;;;;;;;7.90;1.97;;;;;;;13.05;68.61;101379.13;5126932;27;20385;-82
2022/11/02 01:18:30;;;;;;;8.38;1.88;;;;;;;13.03;68.78;101381.06;5126248;27;20631;-81
2022/11/02 01:20:56;;;;;;;8.18;1.95;;;;;;;12.98;68.39;101383.25;5127654;27;20076;-81
2022/11/02 01:23:21;;;;;;;8.48;1.98;;;;;;;12.91;68.46;101371.38;5125899;27;20020;-81
2022/11/02 01:25:46;;;;;;;7.65;1.95;;;;;;;12.89;68.09;101382.16;5126295;27;20457;-81
2022/11/02 01:28:11;;;;;;;8.73;1.65;;;;;;;12.87;68.18;101380.56;5141205;27;20070;-80
2022/11/02 01:30:37;;;;;;;8.70;2.03;;;;;;;12.84;68.37;101381.66;5139679;27;20059;-80
2022/11/02 01:33:04;;;;;;;9.63;2.10;;;;;;;12.80;68.45;101382.03;5126811;27;20035;-81
2022/11/02 01:35:30;;;;;;;8.30;2.17;;;;;;;12.75;68.36;101383.22;5126588;27;20034;-80
2022/11/02 01:37:55;;;;;;;7.80;2.05;;;;;;;12.71;69.02;101379.09;5138720;27;20076;-80
2022/11/02 01:40:20;;;;;;;9.07;1.77;;;;;;;12.67;69.06;101390.94;5125464;27;20019;-81
2022/11/02 01:42:45;;;;;;;8.35;1.92;;;;;;;12.64;69.02;101393.88;5126224;27;20338;-80
2022/11/02 01:45:12;;;;;;;8.52;2.08;;;;;;;12.60;69.49;101395.06;5126301;27;20102;-80
2022/11/02 01:47:41;;;;;;;7.78;1.63;;;;;;;12.54;69.43;101395.50;5124944;27;20474;-80
2022/11/02 01:50:11;;;;;;;8.25;2.08;;;;;;;12.51;69.40;101401.94;5125359;27;20071;-81
2022/11/02 01:52:38;;;;;;;5.78;1.65;;;;;;;12.48;69.17;101393.34;5140620;27;20103;-81
2022/11/02 01:55:18;;;;;;;8.68;1.98;;;;;;;12.45;69.56;101398.91;5138037;27;20377;-81
2022/11/02 01:57:47;;;;;;;8.50;2.30;;;;;;;12.45;69.56;101401.56;5135831;27;20092;-81
2022/11/02 02:00:14;;;;;;;10.98;2.80;;;;;;;12.41;69.32;101395.63;5129609;27;20458;-81
2022/11/02 02:02:55;;;;;;;8.73;2.60;;;;;;;12.44;69.79;101391.84;5138351;27;20030;-80
2022/11/02 02:05:23;;;;;;;10.13;1.83;;;;;;;12.42;69.56;101393.78;5138952;27;20115;-81
2022/11/02 02:07:49;;;;;;;6.65;2.00;;;;;;;12.42;69.89;101393.78;5138666;27;20015;-81
2022/11/02 02:10:14;;;;;;;8.48;1.80;;;;;;;12.41;69.86;101398.28;5130703;27;20030;-81
2022/11/02 02:12:41;;;;;;;5.88;1.58;;;;;;;12.38;69.95;101394.03;5113364;27;20413;-81
2022/11/02 02:15:07;;;;;;;11.48;1.90;;;;;;;12.34;70.26;101389.91;5116902;28;20039;-81
2022/11/02 02:18:13;;;;;;;9.13;2.15;;;;;;;12.34;70.52;101397.91;5119137;28;20053;-81
2022/11/02 02:20:45;;;;;;;6.80;1.63;;;;;;;12.27;70.22;101393.97;5133153;27;20543;-82
2022/11/02 02:23:15;;;;;;;4.57;1.95;;;;;;;12.27;70.60;101403.78;5128754;27;20035;-81
2022/11/02 02:26:11;;;;;;;9.07;1.90;;;;;;;12.24;70.70;101407.53;5126354;27;20083;-80
2022/11/02 02:28:55;;;;;;;11.30;2.42;;;;;;;12.21;71.14;101410.44;5136087;27;20023;-81
2022/11/02 02:31:30;;;;;;;9.20;1.88;;;;;;;12.14;71.33;101396.72;5131086;27;20354;-81
2022/11/02 02:34:17;;;;;;;9.40;2.00;;;;;;;12.15;71.17;101400.22;5100729;27;20027;-81
2022/11/02 02:36:46;;;;;;;10.45;2.45;;;;;;;12.11;71.31;101402.28;5128606;27;20462;-81
2022/11/02 02:39:11;;;;;;;;;;;;;;;12.20;71.04;101395.41;5137312;27;20015;-81
2022/11/02 02:41:43;;;;;;;9.25;2.20;;;;;;;12.09;71.40;101409.53;5138313;27;19922;-81
2022/11/02 02:44:14;;;;;;;8.35;2.10;;;;;;;12.03;71.84;101396.66;5125096;27;20164;-81
2022/11/02 02:46:43;;;;;;;8.40;2.25;;;;;;;11.97;71.73;101395.31;5116461;28;20023;-81
2022/11/02 02:49:12;;;;;;;13.13;2.53;;;;;;;11.97;71.84;101405.09;5130200;27;20047;-81
2022/11/02 02:51:40;;;;;;;10.93;2.00;;;;;;;11.99;71.71;101416.47;5121645;27;20396;-81
2022/11/02 02:54:10;;;;;;;9.82;2.65;;;;;;;11.94;71.96;101400.88;5138244;27;20058;-81
2022/11/02 02:56:44;;;;;;;12.40;2.70;;;;;;;11.93;71.93;101416.94;5130213;27;20501;-81
2022/11/02 02:59:20;;;;;;;11.23;2.47;;;;;;;11.92;71.81;101418.75;5135953;27;20035;-80
2022/11/02 03:01:45;;;;;;;11.48;2.35;;;;;;;11.90;71.77;101425.13;5129530;27;20023;-81
2022/11/02 03:04:11;;;;;;;12.48;2.50;;;;;;;11.90;71.58;101433.09;5119067;27;20061;-81
2022/11/02 03:06:38;;;;;;;11.77;2.60;;;;;;;11.89;71.60;101426.06;5129524;27;20019;-81
2022/11/02 03:09:12;;;;;;;12.48;2.70;;;;;;;11.85;71.57;101412.13;5123170;27;20118;-80
2022/11/02 03:11:55;;;;;;;8.68;2.40;;;;;;;11.84;71.32;101418.44;5127827;27;20462;-81
2022/11/02 03:15:09;;;;;;;11.18;2.40;;;;;;;11.88;71.41;101422.56;5139045;27;20027;-81
2022/11/02 03:17:46;;;;;;;13.55;2.85;;;;;;;11.88;71.44;101422.56;5054006;28;20029;-81
2022/11/02 03:20:44;;;;;;;9.73;2.08;;;;;;;11.88;71.49;101424.38;5129837;27;20088;-81
2022/11/02 03:23:34;;;;;;;12.32;2.75;;;;;;;11.85;71.62;101433.44;5140497;27;20461;-81
2022/11/02 03:26:03;;;;;;;14.48;2.78;;;;;;;11.86;71.35;101432.47;5139076;27;20051;-81
2022/11/02 03:28:49;;;;;;;11.25;2.42;;;;;;;11.84;71.30;101432.59;5137721;27;20027;-81
2022/11/02 03:31:45;;;;;;;12.00;2.47;;;;;;;11.85;71.25;101441.41;5138484;27;20027;-81
2022/11/02 03:34:36;;;;;;;12.25;2.30;;;;;;;11.87;71.09;101439.50;5106415;28;20486;-81
2022/11/02 03:37:21;;;;;;;14.50;2.85;;;;;;;11.85;71.25;101449.41;5117457;28;20045;-81
2022/11/02 03:40:05;;;;;;;11.25;2.33;;;;;;;11.82;71.43;101445.16;5120952;27;20072;-81
2022/11/02 03:42:32;;;;;;;11.13;3.00;;;;;;;11.84;71.14;101456.53;5138538;27;20019;-81
2022/11/02 03:45:03;;;;;;;11.50;2.65;;;;;;;11.80;71.40;101452.38;5128973;27;20469;-80
2022/11/02 03:47:32;;;;;;;13.85;3.20;;;;;;;11.76;71.51;101442.94;5137318;27;20027;-81
2022/11/02 03:49:59;;;;;;;;;;;;;;;11.86;71.45;101459.09;5117574;28;20111;-81
2022/11/02 03:52:28;;;;;;;17.90;2.90;;;;;;;11.76;71.66;101450.94;5129850;28;19911;-81
2022/11/02 03:55:04;;;;;;;15.20;2.30;;;;;;;11.77;71.78;101457.94;5123988;28;20142;-81
2022/11/02 03:57:45;;;;;;;13.15;3.30;;;;;;;11.77;71.77;101463.25;5134031;28;20027;-80
2022/11/02 04:00:12;;;;;;;13.25;2.95;;;;;;;11.73;72.25;101466.25;5124267;28;20035;-81
2022/11/02 04:02:40;;;;;;;15.70;2.97;;;;;;;11.72;72.39;101476.03;5128926;27;20046;-80
2022/11/02 04:05:05;;;;;;;19.13;3.17;;;;;;;11.72;72.48;101477.88;5133397;27;20028;-81
2022/11/02 04:08:19;;;;;;;13.40;2.78;;;;;;;11.70;72.97;101488.63;5140878;27;20351;-81
2022/11/02 04:10:20;;;;;;;14.27;2.93;;;;;;;11.69;73.18;101486.94;5143218;27;20062;-81
2022/11/02 04:15:29;;;;;;;12.90;3.28;;;;;;;11.65;73.46;101493.41;5140736;27;20116;-81
2022/11/02 04:20:38;;;;;;;12.10;2.50;;;;;;;11.63;73.64;101505.97;5136735;27;20125;-81
2022/11/02 04:25:54;;;;;;;13.80;2.55;;;;;;;11.57;73.70;101504.59;5120752;27;20093;-81
2022/11/02 04:28:19;;;;;;;21.13;3.20;;;;;;;11.57;73.80;101501.91;5133682;27;20023;-81
2022/11/02 04:30:45;;;;;;;11.60;2.67;;;;;;;11.57;74.00;101512.56;5148751;27;20025;-81
2022/11/02 04:35:54;;;;;;;15.68;3.50;;;;;;;11.52;73.64;101521.84;5141851;27;20084;-81
2022/11/02 04:43:46;;;;;;;11.40;2.58;;;;;;;11.50;74.03;101542.38;5146870;27;20337;-81
2022/11/02 04:46:12;;;;;;;10.90;2.50;;;;;;;11.48;73.80;101551.31;5115834;27;20036;-80
2022/11/02 04:48:37;;;;;;;15.27;3.00;;;;;;;11.48;73.92;101545.16;5154566;27;20127;-81
2022/11/02 04:51:02;;;;;;;11.85;3.17;;;;;;;11.47;73.96;101554.06;5142896;27;20071;-80
2022/11/02 04:53:28;;;;;;;17.13;2.70;;;;;;;11.50;73.96;101559.19;5144840;27;20050;-81
2022/11/02 04:55:53;;;;;;;14.05;3.00;;;;;;;11.47;73.78;101557.59;5145367;27;20027;-81
2022/11/02 04:58:18;;;;;;;12.27;2.80;;;;;;;11.48;74.11;101564.63;5156946;27;20031;-81
2022/11/02 05:00:44;;;;;;;14.40;2.95;;;;;;;11.50;73.86;101569.81;5143241;27;20023;-81
2022/11/02 05:03:09;;;;;;;13.13;2.95;;;;;;;11.50;73.83;101571.66;5130754;27;20499;-81
2022/11/02 05:05:34;;;;;;;13.00;2.97;;;;;;;11.46;74.04;101579.84;5124406;27;20052;-81
2022/11/02 05:07:59;;;;;;;14.80;3.57;;;;;;;11.52;73.93;101583.88;5142670;27;20315;-81
2022/11/02 05:10:25;;;;;;;14.45;3.00;;;;;;;11.51;73.94;101590.16;5140404;27;20356;-81
2022/11/02 05:12:58;;;;;;;18.52;3.45;;;;;;;11.49;74.02;101592.09;5102984;28;20027;-81
2022/11/02 05:15:23;;;;;;;18.48;3.13;;;;;;;11.52;73.87;101586.53;5135564;27;20481;-81
2022/11/02 05:17:48;;;;;;;10.35;2.58;;;;;;;11.55;73.38;101596.13;5132378;27;20027;-81
2022/11/02 05:20:14;;;;;;;12.45;2.50;;;;;;;11.52;73.54;101602.50;5120280;27;20442;-82
2022/11/02 05:22:43;;;;;;;14.85;3.63;;;;;;;11.50;73.58;101596.44;5139453;27;20030;-81
2022/11/02 05:25:09;;;;;;;13.70;2.70;;;;;;;11.53;73.17;101617.50;5138999;27;20102;-82
2022/11/02 05:27:34;;;;;;;17.33;2.80;;;;;;;11.52;73.56;101614.94;5144586;27;20118;-82
2022/11/02 05:30:00;;;;;;;11.15;2.58;;;;;;;11.45;73.11;101612.69;5112889;27;20066;-82
2022/11/02 05:32:28;;;;;;;16.90;3.13;;;;;;;11.47;73.36;101625.91;5131382;27;20032;-81
2022/11/02 05:34:53;;;;;;;13.73;2.90;;;;;;;11.42;73.16;101618.25;5119828;27;20307;-81
2022/11/02 05:37:18;;;;;;;14.57;3.40;;;;;;;11.43;72.91;101637.72;5127448;27;20027;-82
2022/11/02 05:39:44;;;;;;;12.25;2.40;;;;;;;11.40;73.23;101636.09;5117780;28;20292;-81
2022/11/02 05:42:09;;;;;;;12.45;2.78;;;;;;;11.36;73.57;101644.38;5135641;27;20023;-81
2022/11/02 05:44:34;;;;;;;12.90;2.80;;;;;;;11.33;73.56;101655.25;5125842;27;20031;-81
2022/11/02 05:47:00;;;;;;;11.98;2.65;;;;;;;11.33;73.87;101655.25;5133111;27;20028;-82
2022/11/02 05:49:25;;;;;;;13.15;2.55;;;;;;;11.29;73.42;101650.13;5139397;27;20047;-81
2022/11/02 05:51:50;;;;;;;14.80;2.55;;;;;;;11.28;73.57;101642.25;5140879;27;20031;-82
2022/11/02 05:54:16;;;;;;;15.48;3.05;;;;;;;11.22;73.79;101659.47;5128903;27;20028;-81
2022/11/02 05:56:42;;;;;;;12.18;2.95;;;;;;;11.18;73.76;101659.78;5138802;27;20038;-82
2022/11/02 05:59:07;;;;;;;11.80;2.03;;;;;;;11.17;74.00;101666.88;5121352;27;20027;-81
2022/11/02 06:01:32;;;;;;;12.07;2.20;;;;;;;11.16;74.11;101664.31;5118234;28;20023;-81
2022/11/02 06:03:57;;;;;;;13.38;2.65;;;;;;;11.10;74.55;101660.28;5101521;27;20027;-82
2022/11/02 06:06:23;;;;;;;13.75;3.15;;;;;;;11.05;74.69;101675.69;5136010;27;20460;-81
2022/11/02 06:08:48;;;;;;;14.45;2.63;;;;;;;11.04;74.74;101684.59;5112617;27;20026;-80
2022/11/02 06:11:13;;;;;;;13.18;3.08;;;;;;;11.00;74.90;101686.59;5144383;27;20449;-81
2022/11/02 06:13:40;;;;;;;16.10;3.13;;;;;;;10.97;74.72;101689.47;5122150;27;20028;-81
2022/11/02 06:16:08;;;;;;;13.90;2.60;;;;;;;10.96;75.13;101694.88;5149120;27;20026;-81
2022/11/02 06:18:34;;;;;;;13.88;2.50;;;;;;;10.91;75.29;101701.34;5136877;27;20023;-81
2022/11/02 06:21:00;;;;;;;15.45;3.03;;;;;;;10.89;75.51;101697.94;5137233;27;20473;-81
2022/11/02 06:23:27;;;;;;;13.63;2.72;;;;;;;10.85;75.47;101706.22;5132731;27;20021;-81
2022/11/02 06:25:54;;;;;;;14.10;3.17;;;;;;;10.83;75.69;101716.09;5138135;27;20075;-81
2022/11/02 06:28:21;;;;;;;15.32;2.70;;;;;;;10.80;75.97;101719.78;5119250;27;20038;-80
2022/11/02 06:30:46;;;;;;;12.75;2.47;;;;;;;10.78;76.19;101728.81;5112461;28;20323;-81
2022/11/02 06:33:11;;;;;;;13.80;2.33;;;;;;;10.75;76.12;101724.53;5126034;27;20030;-82
2022/11/02 06:35:37;;;;;;;12.07;2.40;;;;;;;10.72;76.11;101735.34;5127583;27;20053;-81
2022/11/02 06:38:02;;;;;;;13.20;3.15;;;;;;;10.70;76.14;101746.06;5130080;27;20031;-80
2022/11/02 06:40:28;;;;;;;14.45;2.97;;;;;;;10.70;76.47;101742.56;5138408;27;20075;-80
2022/11/02 06:42:57;;;;;;;13.07;3.03;;;;;;;10.67;76.71;101753.41;5136837;27;20019;-81
2022/11/02 06:45:23;;;;;;;11.77;2.60;;;;;;;10.60;76.69;101758.22;5137016;27;20114;-81
2022/11/02 06:47:49;;;;;;;13.13;2.78;;;;;;;10.62;76.68;101771.41;5124009;27;20043;-81
2022/11/02 06:50:14;;;;;;;11.48;2.58;;;;;;;10.59;76.70;101772.50;5132723;27;20035;-82
2022/11/02 06:52:44;;;;;;;15.25;3.15;;;;;;;10.60;76.82;101792.78;5138114;27;20050;-82
2022/11/02 06:55:11;;;;;;;12.85;3.13;;;;;;;10.57;76.66;101792.09;5132778;27;20023;-81
2022/11/02 06:57:37;;;;;;;14.77;3.05;;;;;;;10.55;76.90;101798.34;5147459;27;20043;-81
2022/11/02 07:00:04;;;;;;;12.65;2.13;;;;;;;10.51;77.07;101810.13;5120468;27;20023;-80
2022/11/02 07:02:30;;;;;;;15.88;2.40;;;;;;;10.51;77.04;101804.81;5140361;27;20377;-81
2022/11/02 07:04:55;;;;;;;12.07;2.45;;;;;;;10.51;77.21;101819.91;5135105;28;20055;-80
2022/11/02 07:07:21;;;;;;;13.50;2.33;;;;;;;10.50;77.43;101826.16;5136314;28;20103;-81
2022/11/02 07:09:46;;;;;;;15.98;3.00;;;;;;;10.49;77.28;101829.75;5138061;27;20353;-81
2022/11/02 07:12:12;;;;;;;15.70;2.90;;;;;;;10.46;77.28;101824.63;5138057;27;20365;-82
2022/11/02 07:14:37;;;;;;;12.35;2.50;;;;;;;10.48;77.16;101844.00;5141207;27;20067;-81
2022/11/02 07:17:03;;;;;;;14.15;2.45;;;;;;;10.47;76.99;101839.63;5119648;28;20068;-81
2022/11/02 07:19:28;;;;;;;11.73;2.50;;;;;;;10.49;77.45;101858.97;5130294;27;20039;-81
2022/11/02 07:21:53;;;;;;;14.27;2.95;;;;;;;10.46;77.83;101862.69;5135641;27;20061;-80
2022/11/02 07:24:19;;;;;;;12.80;2.63;;;;;;;10.51;77.37;101867.72;5141967;28;20035;-80
2022/11/02 07:26:47;;;;;;;9.27;2.78;;;;;;;10.50;77.67;101863.34;5130092;28;20027;-81
2022/11/02 07:29:13;;;;;;;10.32;2.08;;;;;;;10.51;77.79;101865.91;5118619;28;20103;-81
2022/11/02 07:31:38;;;;;;;10.05;2.13;;;;;;;10.52;77.68;101870.28;5108112;28;20452;-81
2022/11/02 07:34:03;;;;;;;13.77;2.95;;;;;;;10.53;77.67;101871.97;5136828;28;20102;-81
2022/11/02 07:36:28;;;;;;;14.32;2.80;;;;;;;10.52;77.76;101872.94;5135190;27;20024;-81
2022/11/02 07:38:54;;;;;;;10.73;2.50;;;;;;;10.53;77.79;101877.28;5110333;28;20023;-80
2022/11/02 07:41:19;;;;;;;15.43;2.60;;;;;;;10.57;78.11;101888.59;5143135;28;20057;-80
2022/11/02 07:43:47;;;;;;;12.07;3.25;;;;;;;10.58;78.10;101884.16;5148594;28;20083;-80
2022/11/02 07:46:12;;;;;;;12.15;2.55;;;;;;;10.59;78.33;101884.06;5147795;28;20027;-80
2022/11/02 07:48:37;;;;;;;14.45;2.97;;;;;;;10.62;78.23;101898.94;5108952;27;1027879;-80
2022/11/02 07:51:03;;;;;;;11.15;2.83;;;;;;;10.63;78.26;101893.53;5136903;27;20027;-80
2022/11/02 07:53:28;;;;;;;12.20;2.80;;;;;;;10.65;78.28;101894.31;5137489;27;20027;-81
2022/11/02 07:55:53;;;;;;;13.10;2.80;;;;;;;10.68;78.50;101903.91;5133158;27;20039;-81
2022/11/02 07:58:19;;;;;;;12.32;2.83;;;;;;;10.72;78.29;101905.41;5149183;28;20046;-80
2022/11/02 08:00:46;;;;;;;15.20;2.78;;;;;;;10.76;78.37;101901.63;5144273;27;20442;-80
2022/11/02 08:03:13;;;;;;;14.23;2.55;;;;;;;10.81;78.26;101898.69;5143351;27;20035;-81
2022/11/02 08:05:40;;;;;;;9.85;2.65;;;;;;;10.85;78.10;101898.41;5141997;28;20531;-81
2022/11/02 08:08:16;;;;;;;12.50;2.90;;;;;;;10.92;78.33;101904.19;5141584;28;20023;-80
2022/11/02 08:10:42;;;;;;;14.15;3.00;;;;;;;10.97;77.88;101903.94;5116742;28;20028;-80
2022/11/02 08:13:09;;;;;;;19.17;3.35;;;;;;;11.04;77.76;101911.44;5132742;28;20053;-80
2022/11/02 08:15:36;;;;;;;11.73;2.60;;;;;;;11.08;77.61;101904.13;5127565;27;20091;-81
2022/11/02 08:18:25;;;;;;;11.68;2.38;;;;;;;11.14;77.12;101908.19;5152511;27;20031;-79
2022/11/02 08:20:51;;;;;;;12.25;2.90;;;;;;;11.21;76.91;101918.38;5130800;27;20032;-79
2022/11/02 08:23:18;;;;;;;17.73;3.70;;;;;;;11.21;76.78;101918.38;5150557;27;20020;-81
2022/11/02 08:25:45;;;;;;;18.10;3.40;;;;;;;11.26;76.92;101920.75;5148385;27;20031;-80
2022/11/02 08:28:13;;;;;;;14.65;2.70;;;;;;;11.28;76.72;101921.50;5138903;28;20027;-80
2022/11/02 08:30:39;;;;;;;15.82;2.95;;;;;;;11.32;76.84;101912.38;5143743;27;20054;-81
2022/11/02 08:33:14;;;;;;;14.35;3.08;;;;;;;11.36;76.89;101918.34;5111790;28;20032;-79
2022/11/02 08:35:40;;;;;;;15.07;3.70;;;;;;;11.40;76.11;101917.22;5147246;28;20030;-80
2022/11/02 08:38:06;;;;;;;13.27;3.00;;;;;;;11.41;76.24;101924.25;5134703;28;20077;-80
2022/11/02 08:40:33;;;;;;;14.98;2.80;;;;;;;11.44;76.21;101926.69;5130352;28;20088;-80
2022/11/02 08:43:03;;;;;;;14.52;2.72;;;;;;;11.52;75.92;101937.72;5132989;27;20029;-80
2022/11/02 08:45:30;;;;;;;14.77;3.15;;;;;;;11.58;75.62;101942.66;5151245;27;20360;-80
2022/11/02 08:47:55;;;;;;;14.68;2.70;;;;;;;11.62;75.68;101938.88;5139983;27;20046;-80
2022/11/02 08:50:22;;;;;;;17.10;2.45;;;;;;;11.68;76.00;101942.94;5148364;27;20055;-80
2022/11/02 08:52:47;;;;;;;13.13;3.05;;;;;;;11.73;75.09;101937.31;5154786;27;20045;-80
2022/11/02 08:55:13;;;;;;;16.88;3.10;;;;;;;11.82;74.92;101945.56;5134462;27;20051;-80
2022/11/02 08:57:52;;;;;;;15.65;3.25;;;;;;;11.91;73.56;101954.81;5135867;27;20031;-79
2022/11/02 09:00:19;;;;;;;11.57;2.50;;;;;;;12.01;72.85;101944.41;5136209;27;20108;-80
2022/11/02 09:03:17;;;;;;;15.48;3.13;;;;;;;12.12;73.12;101952.53;5135736;27;20034;-80
2022/11/02 09:05:44;;;;;;;16.73;3.20;;;;;;;12.25;72.88;101957.91;5132856;27;20035;-79
2022/11/02 09:08:18;;;;;;;9.80;2.85;;;;;;;12.36;72.38;101954.56;5123213;27;20015;-79
2022/11/02 09:10:49;;;;;;;13.90;2.50;;;;;;;12.42;72.38;101953.28;5145810;27;20015;-79
2022/11/02 09:13:17;;;;;;;14.52;3.00;;;;;;;12.55;71.93;101946.19;5134391;27;20150;-80
2022/11/02 09:15:42;;;;;;;13.38;2.88;;;;;;;12.71;72.16;101951.34;5140607;27;20015;-80
2022/11/02 09:18:08;;;;;;;11.00;2.83;;;;;;;12.81;71.22;101955.06;5119998;28;20031;-81
2022/11/02 09:20:34;;;;;;;13.40;2.65;;;;;;;12.92;70.93;101957.88;5129842;27;20087;-80
2022/11/02 09:22:59;;;;;;;14.68;2.88;;;;;;;13.04;70.01;101961.50;5128250;28;20055;-80
2022/11/02 09:25:25;;;;;;;15.77;2.90;;;;;;;13.16;70.50;101970.47;5145695;27;20040;-81
2022/11/02 09:27:56;;;;;;;13.90;3.13;;;;;;;13.29;70.37;101965.13;5123234;27;20019;-81
2022/11/02 09:30:22;;;;;;;12.85;3.10;;;;;;;13.47;70.39;101953.19;5136242;27;20118;-81
2022/11/02 09:32:58;;;;;;;11.45;2.80;;;;;;;13.60;69.24;101971.81;5130382;27;20035;-82
2022/11/02 09:35:25;;;;;;;15.85;3.33;;;;;;;13.69;68.08;101971.19;5148402;27;20023;-81
2022/11/02 09:37:51;;;;;;;13.93;3.17;;;;;;;13.81;68.23;101974.78;5147232;27;20076;-81
2022/11/02 09:40:22;;;;;;;19.23;3.03;;;;;;;13.89;67.58;101968.88;5146897;27;20023;-81
2022/11/02 09:42:57;;;;;;;17.52;3.40;;;;;;;13.95;67.37;101980.94;5132249;27;20035;-81
2022/11/02 09:45:23;;;;;;;16.23;3.40;;;;;;;14.09;67.44;101975.44;5125465;28;20050;-81
2022/11/02 09:47:59;;;;;;;18.35;3.95;;;;;;;14.17;65.82;101966.84;5139295;27;20443;-81
2022/11/02 09:50:35;;;;;;;16.25;3.13;;;;;;;14.17;65.86;101978.41;5120074;28;20050;-80
2022/11/02 09:53:05;;;;;;;11.15;2.47;;;;;;;14.23;66.42;101977.94;5106770;28;20059;-80
2022/11/02 09:55:35;;;;;;;14.52;2.95;;;;;;;14.27;63.97;101977.72;5122449;28;20061;-80
2022/11/02 09:58:16;;;;;;;12.43;3.05;;;;;;;14.37;65.17;101978.72;5126591;28;20027;-81
2022/11/02 10:00:46;;;;;;;13.65;2.50;;;;;;;14.45;64.01;101987.03;5118780;28;20028;-81
2022/11/02 10:03:42;;;;;;;11.75;2.70;;;;;;;14.56;65.69;101984.41;5123557;28;20028;-81
2022/11/02 10:06:14;;;;;;;10.68;2.80;;;;;;;14.64;63.18;101988.34;5110950;28;20449;-81
2022/11/02 10:09:05;;;;;;;16.02;3.05;;;;;;;14.78;64.48;101997.03;5119858;28;20019;-80
2022/11/02 10:11:55;;;;;;;10.85;2.60;;;;;;;14.84;63.68;102003.75;5113349;28;20032;-81
2022/11/02 10:14:31;;;;;;;14.85;2.90;;;;;;;14.84;62.02;102001.06;5114095;28;20053;-81
2022/11/02 10:17:22;;;;;;;13.50;2.65;;;;;;;14.91;62.04;102010.31;5113347;28;20111;-81
2022/11/02 10:19:54;;;;;;;15.52;3.35;;;;;;;14.88;61.19;102010.56;5115322;28;20394;-81
2022/11/02 10:22:25;;;;;;;11.45;2.80;;;;;;;14.92;61.38;102009.38;5118404;27;20019;-81
2022/11/02 10:24:55;;;;;;;15.57;3.05;;;;;;;15.02;61.88;102005.97;5125418;27;20063;-81
2022/11/02 10:27:25;;;;;;;;;;;;;;;15.12;63.45;102012.31;5125128;27;20030;-81
2022/11/02 10:30:00;;;;;;;14.95;2.67;;;;;;;15.21;60.74;102013.44;5129870;27;19919;-81
2022/11/02 10:32:25;;;;;;;13.52;3.03;;;;;;;15.31;60.32;102012.59;5119606;28;20027;-80
2022/11/02 10:34:51;;;;;;;12.10;2.83;;;;;;;15.38;59.49;102012.13;5109635;28;20040;-81
2022/11/02 10:37:34;;;;;;;12.05;2.33;;;;;;;15.40;59.17;102011.00;5124868;28;20050;-80
2022/11/02 10:40:28;;;;;;;13.93;3.10;;;;;;;15.52;60.19;102006.50;5107752;28;20500;-80
2022/11/02 10:43:27;;;;;;;14.75;2.72;;;;;;;15.57;59.91;102006.16;5101755;28;20381;-82
2022/11/02 10:46:08;;;;;;;30.38;3.65;;;;;;;15.62;58.30;102018.22;5118944;28;20043;-82
2022/11/02 10:48:59;;;;;;;12.07;2.72;;;;;;;15.63;57.80;102011.03;5121782;27;20057;-82
2022/11/02 10:51:25;;;;;;;11.00;2.80;;;;;;;15.67;56.39;102010.66;5143526;27;20050;-81
2022/11/02 10:53:52;;;;;;;11.50;2.75;;;;;;;15.88;56.55;102018.81;5141886;27;20534;-82
2022/11/02 10:56:20;;;;;;;11.10;2.58;;;;;;;15.96;56.40;102023.56;5151034;27;20030;-81
2022/11/02 10:58:58;;;;;;;10.80;2.63;;;;;;;15.95;54.57;102013.81;5151038;27;20097;-82
2022/11/02 11:01:23;;;;;;;11.80;3.05;;;;;;;15.98;54.55;102026.97;5133481;27;20039;-82
2022/11/02 11:03:54;;;;;;;10.45;2.90;;;;;;;15.93;54.48;102034.53;5139088;27;20448;-82
2022/11/02 11:06:21;;;;;;;15.18;3.00;;;;;;;15.96;54.85;102025.41;5155392;27;20020;-82
2022/11/02 11:08:48;;;;;;;13.85;2.80;;;;;;;15.99;54.57;102023.34;5140422;27;20027;-81
2022/11/02 11:11:20;;;;;;;16.13;3.55;;;;;;;15.99;54.21;102026.00;5138487;27;20149;-81
2022/11/02 11:14:12;;;;;;;18.52;2.85;;;;;;;16.03;54.95;102024.78;5138849;27;20024;-81
2022/11/02 11:16:42;;;;;;;12.93;2.50;;;;;;;16.11;53.70;102029.53;5136654;27;20043;-82
2022/11/02 11:19:24;;;;;;;14.50;2.85;;;;;;;16.17;54.33;102026.34;5156423;27;20027;-80
2022/11/02 11:21:50;;;;;;;13.60;2.60;;;;;;;16.23;53.75;102031.19;5145300;27;20480;-81
2022/11/02 11:24:23;;;;;;;12.38;2.92;;;;;;;16.32;54.52;102032.28;5150391;27;20041;-81
2022/11/02 11:27:10;;;;;;;25.10;3.50;;;;;;;16.39;54.72;102029.94;5133423;27;20095;-81
2022/11/02 11:29:41;;;;;;;12.38;2.50;;;;;;;16.40;53.34;102027.16;5130427;27;20039;-81
2022/11/02 11:32:19;;;;;;;13.18;2.67;;;;;;;16.34;53.00;102019.59;5148430;27;20065;-81
2022/11/02 11:34:54;;;;;;;11.48;2.70;;;;;;;16.25;52.73;102023.03;5143768;27;20053;-81
2022/11/02 11:37:20;;;;;;;11.27;2.58;;;;;;;16.21;52.32;102009.03;5128581;27;20039;-81
2022/11/02 11:39:52;;;;;;;14.07;2.75;;;;;;;16.24;52.78;102014.13;5136014;27;20062;-81
2022/11/02 11:42:24;;;;;;;10.85;2.38;;;;;;;16.20;52.84;102001.09;5127318;27;20054;-81
2022/11/02 11:45:00;;;;;;;14.05;2.35;;;;;;;16.18;53.40;102008.44;5137979;27;20043;-81
2022/11/02 11:47:29;;;;;;;14.23;2.80;;;;;;;16.05;52.33;102005.88;5146189;27;20126;-82